Ingleside, Canada
Current Conditions -  °F | °C
As of 2:53 AM on Friday 24 Oct 2014 (Local Time) from KMSS Reporting Station
Overcast Overcast  
Wind Chill:   Ceiling: 4400
Heat Index:   Visibility: 10mi
Dew Point:   Wind: 5mph
Humidity: 83%   Direction: 30°NNE
Pressure: 29.94"   Gusts: NA
Location:  45°N, 75°W
Report Text: KMSS 240653Z AUTO 03004KT 10SM OVC044 08/05 A2994 RMK AO2 SLP142 T00780050
Loading
Personal Weather Stations






























Interactive Weather Map
Tropical Storm Tracking
New forecast layout! Learn more

10-Day Weather Forecast

Advertisements
Track Severe Weather on mobile